createdAt,value
2019-02-14T00:01:02.546Z,102028.32
2019-02-14T00:06:07.830Z,102027.99
2019-02-14T00:11:13.301Z,102031.95
2019-02-14T00:16:18.758Z,102027.50
2019-02-14T00:21:23.790Z,102037.05
2019-02-14T00:26:28.945Z,102031.80
2019-02-14T00:31:33.993Z,102039.05
2019-02-14T00:36:39.042Z,102047.58
2019-02-14T00:41:44.304Z,102042.91
2019-02-14T00:46:49.722Z,102048.52
2019-02-14T00:51:54.747Z,102045.81
2019-02-14T00:56:59.795Z,102054.25
2019-02-14T01:02:05.870Z,102048.48
2019-02-14T01:07:10.852Z,102036.73
2019-02-14T01:12:16.091Z,102043.63
2019-02-14T01:17:21.338Z,102047.80
2019-02-14T01:22:26.375Z,102041.70
2019-02-14T01:27:31.510Z,102040.48
2019-02-14T01:32:36.513Z,102047.31
2019-02-14T01:37:41.619Z,102062.72
2019-02-14T01:42:46.938Z,102064.35
2019-02-14T01:47:51.983Z,102062.73
2019-02-14T01:52:57.103Z,102068.70
2019-02-14T01:58:02.314Z,102073.97
2019-02-14T02:03:07.440Z,102084.52
2019-02-14T02:08:12.532Z,102087.63
2019-02-14T02:13:17.756Z,102081.73
2019-02-14T02:18:23.023Z,102069.19
2019-02-14T02:23:28.097Z,102064.09
2019-02-14T02:28:33.180Z,102065.09
2019-02-14T02:33:38.233Z,102052.44
2019-02-14T02:38:44.398Z,102052.61
2019-02-14T02:43:49.479Z,102050.48
2019-02-14T02:48:54.508Z,102054.92
2019-02-14T02:54:00.038Z,102061.81
2019-02-14T02:59:05.538Z,102056.55
2019-02-14T03:04:10.616Z,102058.17
2019-02-14T03:09:16.002Z,102073.35
2019-02-14T03:14:21.000Z,102081.94
2019-02-14T03:19:26.505Z,102081.81
2019-02-14T03:24:31.497Z,102069.63
2019-02-14T03:29:36.526Z,102073.25
2019-02-14T03:34:41.600Z,102066.50
2019-02-14T03:39:46.729Z,102060.70
2019-02-14T03:44:51.686Z,102070.50
2019-02-14T03:49:56.782Z,102076.38
2019-02-14T03:55:01.853Z,102091.56
2019-02-14T04:00:10.104Z,102090.67
2019-02-14T04:05:15.486Z,102085.72
2019-02-14T04:10:20.536Z,102076.58
2019-02-14T04:15:25.536Z,102095.69
2019-02-14T04:20:30.924Z,102092.94
2019-02-14T04:25:36.054Z,102108.85
2019-02-14T04:30:41.497Z,102120.06
2019-02-14T04:35:47.721Z,102122.55
2019-02-14T04:40:52.746Z,102120.63
2019-02-14T04:45:57.864Z,102124.95
2019-02-14T04:51:02.921Z,102105.64
2019-02-14T04:56:08.072Z,102106.39
2019-02-14T05:01:13.167Z,102106.67
2019-02-14T05:06:18.171Z,102104.67
2019-02-14T05:11:23.224Z,102105.08
2019-02-14T05:16:28.290Z,102126.41
2019-02-14T05:21:33.410Z,102142.15
2019-02-14T05:26:38.482Z,102121.15
2019-02-14T05:31:43.516Z,102131.45
2019-02-14T05:36:53.694Z,102130.81
2019-02-14T05:42:05.122Z,102129.95
2019-02-14T05:47:10.466Z,102128.91
2019-02-14T05:52:15.526Z,102107.27
2019-02-14T05:57:20.568Z,102123.85
2019-02-14T06:02:25.668Z,102114.77
2019-02-14T06:07:30.838Z,102135.70
2019-02-14T06:12:35.991Z,102136.17
2019-02-14T06:17:41.575Z,102136.41
2019-02-14T06:22:47.762Z,102145.73
2019-02-14T06:27:52.977Z,102159.95
2019-02-14T06:32:59.021Z,102133.10
2019-02-14T06:38:04.060Z,102118.59
2019-02-14T06:43:09.084Z,102149.86
2019-02-14T06:48:15.127Z,102154.25
2019-02-14T06:53:20.250Z,102139.80
2019-02-14T06:58:26.668Z,102131.70
2019-02-14T07:03:32.108Z,102161.15
2019-02-14T07:08:37.354Z,102156.52
2019-02-14T07:13:45.111Z,102146.77
2019-02-14T07:18:50.811Z,102136.44
2019-02-14T07:23:57.184Z,102161.91
2019-02-14T07:29:02.574Z,102163.06
2019-02-14T07:34:10.003Z,102170.48
2019-02-14T07:39:15.258Z,102180.84
2019-02-14T07:44:20.374Z,102186.07
2019-02-14T07:49:25.676Z,102197.30
2019-02-14T07:54:30.941Z,102201.78
2019-02-14T07:59:36.182Z,102204.41
2019-02-14T08:04:41.314Z,102220.03
2019-02-14T08:09:46.506Z,102235.98
2019-02-14T08:14:51.913Z,102225.58
2019-02-14T08:19:57.250Z,102213.61
2019-02-14T08:25:02.577Z,102217.04
2019-02-14T08:30:09.582Z,102232.34
2019-02-14T08:35:14.909Z,102206.11
2019-02-14T08:40:23.276Z,102210.31
2019-02-14T08:45:28.427Z,102207.08
2019-02-14T08:50:33.750Z,102213.66
2019-02-14T08:55:39.326Z,102201.23
2019-02-14T09:00:44.872Z,102219.89
2019-02-14T09:05:50.255Z,102223.00
2019-02-14T09:10:55.524Z,102218.03
2019-02-14T09:16:00.929Z,102195.53
2019-02-14T09:21:06.210Z,102175.76
2019-02-14T09:26:11.816Z,102183.88
2019-02-14T09:31:17.178Z,102174.36
2019-02-14T09:36:22.476Z,102171.23
2019-02-14T09:41:27.792Z,102174.78
2019-02-14T09:46:32.934Z,102162.73
2019-02-14T09:51:38.105Z,102165.58
2019-02-14T09:56:43.247Z,102166.09
2019-02-14T10:01:48.423Z,102172.56
2019-02-14T10:06:53.969Z,102169.09
2019-02-14T10:11:59.348Z,102169.23
2019-02-14T10:17:05.512Z,102173.77
2019-02-14T10:22:10.750Z,102165.50
2019-02-14T10:27:15.947Z,102157.95
2019-02-14T10:32:21.108Z,102161.10
2019-02-14T10:37:26.271Z,102147.31
2019-02-14T10:42:31.527Z,102145.72
2019-02-14T10:47:36.567Z,102143.16
2019-02-14T10:52:41.673Z,102140.56
2019-02-14T10:57:46.923Z,102142.05
2019-02-14T11:02:53.071Z,102147.89
2019-02-14T11:07:58.232Z,102154.06
2019-02-14T11:13:03.473Z,102154.63
2019-02-14T11:18:08.943Z,102147.34
2019-02-14T11:23:14.121Z,102150.52
2019-02-14T11:28:19.364Z,102149.71
2019-02-14T11:33:24.666Z,102140.41
2019-02-14T11:38:29.879Z,102144.91
2019-02-14T11:43:34.943Z,102140.23
2019-02-14T11:48:39.978Z,102128.14
2019-02-14T11:53:45.164Z,102131.95
2019-02-14T11:58:50.674Z,102120.34
2019-02-14T12:03:55.800Z,102107.78
2019-02-14T12:09:05.010Z,102104.06
2019-02-14T12:14:11.440Z,102088.50
2019-02-14T12:19:17.025Z,102091.98
2019-02-14T12:24:23.899Z,102087.14
2019-02-14T12:29:32.444Z,102088.23
2019-02-14T12:34:37.956Z,102096.92
2019-02-14T12:39:43.104Z,102088.89
2019-02-14T12:44:47.330Z,102090.56
2019-02-14T12:49:57.565Z,102091.51
2019-02-14T12:55:03.283Z,102089.30
2019-02-14T13:00:09.048Z,102080.64
2019-02-14T13:05:13.085Z,102083.99
2019-02-14T13:10:17.023Z,102075.05
2019-02-14T13:15:21.451Z,102073.89
2019-02-14T13:20:26.255Z,102061.85
2019-02-14T13:25:33.924Z,102060.99
2019-02-14T13:30:38.571Z,102055.98
2019-02-14T13:36:03.416Z,102044.80
2019-02-14T13:41:11.719Z,102044.75
2019-02-14T13:46:17.418Z,102039.73
2019-02-14T13:51:21.580Z,102043.70
2019-02-14T13:56:25.633Z,102047.91
2019-02-14T14:01:29.587Z,102037.58
2019-02-14T14:06:33.676Z,102038.30
2019-02-14T14:11:38.122Z,102053.55
2019-02-14T14:16:42.442Z,102057.45
2019-02-14T14:21:47.358Z,102057.92
2019-02-14T14:26:51.654Z,102045.88
2019-02-14T14:31:55.659Z,102053.00
2019-02-14T14:36:59.570Z,102049.38
2019-02-14T14:42:05.242Z,102048.34
2019-02-14T14:47:15.909Z,102050.47
2019-02-14T14:52:20.157Z,102045.57
2019-02-14T14:57:25.090Z,102040.05
2019-02-14T15:02:30.186Z,102045.55
2019-02-14T15:07:36.189Z,102043.47
2019-02-14T15:12:41.599Z,102041.77
2019-02-14T15:17:47.050Z,102032.92
2019-02-14T15:22:52.178Z,102037.56
2019-02-14T15:27:57.364Z,102034.75
2019-02-14T15:33:02.641Z,102029.80
2019-02-14T15:38:09.850Z,102039.75
2019-02-14T15:43:14.745Z,102026.57
2019-02-14T15:48:19.847Z,102028.33
2019-02-14T15:53:25.367Z,102025.52
2019-02-14T15:58:32.914Z,102029.61
2019-02-14T16:03:38.540Z,102028.31
2019-02-14T16:08:46.711Z,102032.41
2019-02-14T16:13:52.827Z,102029.38
2019-02-14T16:18:58.596Z,102024.69
2019-02-14T16:24:04.032Z,102027.71
2019-02-14T16:29:09.233Z,102023.48
2019-02-14T16:34:15.446Z,102020.61
2019-02-14T16:39:22.954Z,102021.95
2019-02-14T16:44:27.894Z,102015.73
2019-02-14T16:49:33.028Z,102013.95
2019-02-14T16:54:38.654Z,102015.66
2019-02-14T16:59:43.923Z,102011.16
2019-02-14T17:04:49.408Z,102011.48
2019-02-14T17:09:55.054Z,102011.88
2019-02-14T17:15:00.187Z,102016.80
2019-02-14T17:20:07.268Z,102015.57
2019-02-14T17:25:13.107Z,102022.98
2019-02-14T17:30:18.623Z,102028.28
2019-02-14T17:35:23.656Z,102019.85
2019-02-14T17:40:28.760Z,102020.73
2019-02-14T17:45:33.893Z,102023.33
2019-02-14T17:50:39.324Z,102020.72
2019-02-14T17:55:46.428Z,102021.80
2019-02-14T18:00:51.791Z,102029.47
2019-02-14T18:05:57.222Z,102030.60
2019-02-14T18:11:02.271Z,102033.59
2019-02-14T18:16:08.518Z,102028.52
2019-02-14T18:21:15.330Z,102041.28
2019-02-14T18:26:20.717Z,102033.43
2019-02-14T18:31:26.216Z,102033.23
2019-02-14T18:36:31.395Z,102039.27
2019-02-14T18:41:36.480Z,102046.58
2019-02-14T18:46:41.895Z,102047.47
2019-02-14T18:51:47.059Z,102045.94
2019-02-14T18:56:52.343Z,102038.08
2019-02-14T19:01:57.426Z,102033.01
2019-02-14T19:07:02.568Z,102033.96
2019-02-14T19:12:09.063Z,102035.61
2019-02-14T19:17:14.255Z,102036.64
2019-02-14T19:22:19.928Z,102044.71
2019-02-14T19:27:25.416Z,102043.47
2019-02-14T19:32:31.588Z,102036.06
2019-02-14T19:37:36.812Z,102040.03
2019-02-14T19:42:42.395Z,102039.42
2019-02-14T19:47:47.854Z,102034.44
2019-02-14T19:52:53.367Z,102037.16
2019-02-14T19:57:59.447Z,102038.33
2019-02-14T20:03:06.075Z,102035.53
2019-02-14T20:08:16.557Z,102034.85
2019-02-14T20:13:22.074Z,102032.27
2019-02-14T20:18:31.632Z,102029.39
2019-02-14T20:23:38.371Z,102024.71
2019-02-14T20:28:44.722Z,102019.86
2019-02-14T20:33:52.934Z,102026.55
2019-02-14T20:38:58.712Z,102018.94
2019-02-14T20:44:04.271Z,102007.77
2019-02-14T20:49:12.158Z,102009.81
2019-02-14T20:54:20.471Z,102004.34
2019-02-14T20:59:34.493Z,102002.30
2019-02-14T21:04:41.094Z,101995.55
2019-02-14T21:09:49.791Z,101986.88
2019-02-14T21:14:56.192Z,101986.80
2019-02-14T21:20:05.746Z,101986.30
2019-02-14T21:25:22.468Z,101989.53
2019-02-14T21:30:42.910Z,101993.14
2019-02-14T21:35:59.675Z,101985.22
2019-02-14T21:41:05.876Z,101985.79
2019-02-14T21:46:12.291Z,101993.23
2019-02-14T21:51:26.735Z,101981.66
2019-02-14T21:56:33.218Z,101990.23
2019-02-14T22:01:40.015Z,101992.75
2019-02-14T22:06:49.045Z,101992.12
2019-02-14T22:11:58.154Z,101992.55
2019-02-14T22:17:09.279Z,101992.70
2019-02-14T22:22:15.468Z,101985.83
2019-02-14T22:27:21.707Z,101988.00
2019-02-14T22:32:28.912Z,101991.50
2019-02-14T22:37:34.869Z,101998.65
2019-02-14T22:42:47.401Z,102006.11
2019-02-14T22:47:51.686Z,102013.91
2019-02-14T22:52:59.877Z,102010.40
2019-02-14T22:58:08.966Z,102021.06
2019-02-14T23:03:18.303Z,102020.98
2019-02-14T23:08:32.801Z,102016.63
2019-02-14T23:13:38.661Z,102018.47
2019-02-14T23:18:47.339Z,102014.09
2019-02-14T23:23:55.846Z,102013.41
2019-02-14T23:29:02.331Z,102009.14
2019-02-14T23:34:10.698Z,102013.21
2019-02-14T23:39:24.220Z,102014.94
2019-02-14T23:44:32.349Z,102014.22
2019-02-14T23:49:41.650Z,102019.63
2019-02-14T23:55:11.849Z,102021.54
